Time;durP1;ratioP1;P1;durP2;ratioP2;P2;SDS_P1;SDS_P2;PMS_P1;PMS_P2;Temp;Humidity;BMP_temperature;BMP_pressure;BME280_temperature;BME280_humidity;BME280_pressure;Samples;Min_cycle;Max_cycle;Signal;HPM_P1;HPM_P2
2023/08/09 00:02:17;;;;;;;4.10;1.60;;;;;;;17.75;54.84;101343.06;5070694;28;20363;-74
2023/08/09 00:04:43;;;;;;;6.03;1.80;;;;;;;17.59;55.25;101336.22;5070798;28;20375;-74
2023/08/09 00:07:08;;;;;;;6.30;1.87;;;;;;;17.72;54.86;101347.00;5071182;28;20399;-74
2023/08/09 00:09:34;;;;;;;5.70;1.92;;;;;;;17.61;55.24;101336.88;5071784;28;20374;-74
2023/08/09 00:11:59;;;;;;;5.13;1.80;;;;;;;17.59;55.22;101344.25;5070498;28;20413;-74
2023/08/09 00:14:25;;;;;;;4.85;1.52;;;;;;;17.62;55.22;101349.22;5070607;28;20407;-74
2023/08/09 00:16:50;;;;;;;4.83;1.80;;;;;;;17.64;55.18;101339.13;5070276;28;20367;-74
2023/08/09 00:19:16;;;;;;;6.00;1.85;;;;;;;17.66;54.98;101339.75;5070533;28;20397;-75
2023/08/09 00:21:41;;;;;;;5.13;2.00;;;;;;;17.59;55.42;101344.25;5070903;28;20866;-74
2023/08/09 00:24:06;;;;;;;6.43;1.83;;;;;;;17.49;55.71;101339.28;5070478;28;20397;-75
2023/08/09 00:26:32;;;;;;;7.03;1.70;;;;;;;17.45;55.72;101338.03;5070400;28;20371;-74
2023/08/09 00:28:57;;;;;;;6.07;1.80;;;;;;;17.39;55.91;101341.50;5070121;28;20367;-74
2023/08/09 00:31:23;;;;;;;4.80;1.60;;;;;;;17.26;56.26;101339.59;5070256;28;20836;-74
2023/08/09 00:33:48;;;;;;;6.07;1.80;;;;;;;17.27;56.30;101349.31;5070580;28;20422;-74
2023/08/09 00:36:15;;;;;;;7.00;2.00;;;;;;;17.26;56.38;101354.84;5070337;28;20389;-74
2023/08/09 00:38:41;;;;;;;6.75;1.88;;;;;;;17.22;56.47;101353.59;5070395;28;20375;-74
2023/08/09 00:41:07;;;;;;;4.78;1.70;;;;;;;17.14;56.66;101352.75;5070372;28;20371;-74
2023/08/09 00:43:32;;;;;;;6.23;1.70;;;;;;;17.18;56.51;101356.69;5068901;28;20378;-74
2023/08/09 00:45:58;;;;;;;6.18;1.90;;;;;;;17.25;56.51;101356.72;5070255;28;20474;-74
2023/08/09 00:48:24;;;;;;;5.40;1.80;;;;;;;17.22;56.50;101350.94;5069202;28;20402;-75
2023/08/09 00:50:49;;;;;;;7.17;1.80;;;;;;;17.25;56.41;101354.03;5070429;28;20375;-74
2023/08/09 00:53:16;;;;;;;5.03;1.88;;;;;;;17.25;56.50;101359.41;5070285;28;20800;-74
2023/08/09 00:55:41;;;;;;;5.00;1.73;;;;;;;17.31;56.14;101360.44;5070258;28;20375;-74
2023/08/09 00:58:07;;;;;;;5.88;1.77;;;;;;;17.27;56.34;101351.97;5069717;28;20465;-74
2023/08/09 01:00:33;;;;;;;4.78;1.65;;;;;;;17.42;55.86;101356.38;5070129;28;20467;-74
2023/08/09 01:02:59;;;;;;;6.60;1.60;;;;;;;17.46;55.83;101361.13;5070146;28;20910;-74
2023/08/09 01:05:33;;;;;;;5.70;1.93;;;;;;;17.40;55.97;101359.25;5071593;28;20415;-74
2023/08/09 01:08:12;;;;;;;5.00;1.80;;;;;;;17.51;55.68;101368.56;5074211;28;20417;-74
2023/08/09 01:10:55;;;;;;;5.57;1.70;;;;;;;17.63;55.14;101369.66;5074263;28;20375;-74
2023/08/09 01:13:21;;;;;;;6.47;1.77;;;;;;;17.74;54.64;101376.31;5066100;28;20415;-74
2023/08/09 01:15:49;;;;;;;5.40;1.73;;;;;;;17.84;54.25;101371.34;5054521;28;20421;-74
2023/08/09 01:18:16;;;;;;;4.45;1.63;;;;;;;17.95;53.77;101364.63;5056464;28;20871;-74
2023/08/09 01:20:43;;;;;;;5.05;1.77;;;;;;;18.00;53.50;101359.47;5058393;28;20464;-74
2023/08/09 01:23:17;;;;;;;5.35;1.73;;;;;;;18.05;53.38;101361.56;5057566;28;20541;-74
2023/08/09 01:25:44;;;;;;;6.07;1.80;;;;;;;17.92;53.81;101352.44;5059676;28;20431;-74
2023/08/09 01:28:10;;;;;;;4.65;1.77;;;;;;;17.80;54.27;101351.34;5058478;28;20456;-74
2023/08/09 01:30:37;;;;;;;4.20;1.60;;;;;;;17.75;54.51;101360.00;5063655;28;20915;-74
2023/08/09 01:33:03;;;;;;;6.43;1.60;;;;;;;17.71;54.68;101355.25;5060019;28;20887;-74
2023/08/09 01:35:34;;;;;;;7.68;1.98;;;;;;;17.71;54.69;101355.25;5062539;28;20402;-74
2023/08/09 01:38:22;;;;;;;4.70;1.50;;;;;;;17.62;54.90;101348.41;5061441;28;20889;-74
2023/08/09 01:40:48;;;;;;;5.70;1.85;;;;;;;17.64;54.92;101349.84;5060100;28;20403;-75
2023/08/09 01:43:14;;;;;;;6.43;1.80;;;;;;;17.70;54.56;101357.09;5069978;28;20734;-75
2023/08/09 01:45:39;;;;;;;7.17;1.90;;;;;;;17.60;54.85;101353.97;5070392;28;20367;-75
2023/08/09 01:48:05;;;;;;;5.28;1.73;;;;;;;17.57;54.98;101352.53;5070312;28;20917;-74
2023/08/09 01:50:31;;;;;;;5.03;1.70;;;;;;;17.64;54.83;101352.53;5070718;28;20380;-75
2023/08/09 01:52:58;;;;;;;5.30;1.50;;;;;;;17.56;54.96;101345.50;5072163;28;20518;-74
2023/08/09 01:55:25;;;;;;;4.88;1.60;;;;;;;17.51;55.28;101356.00;5073202;28;20445;-74
2023/08/09 01:57:51;;;;;;;5.97;1.77;;;;;;;17.54;55.13;101350.25;5072990;28;20712;-75
2023/08/09 02:00:19;;;;;;;6.50;1.70;;;;;;;17.49;55.27;101350.00;5073177;28;20386;-75
2023/08/09 02:02:45;;;;;;;4.43;1.60;;;;;;;17.37;55.55;101349.75;5073324;28;20375;-75
2023/08/09 02:05:11;;;;;;;5.95;1.95;;;;;;;17.33;55.70;101347.69;5073036;28;20468;-75
2023/08/09 02:07:37;;;;;;;5.88;1.80;;;;;;;17.26;55.92;101350.31;5073334;28;20739;-75
2023/08/09 02:10:04;;;;;;;5.78;1.70;;;;;;;17.26;56.10;101362.91;5073336;28;20379;-75
2023/08/09 02:12:30;;;;;;;5.60;1.75;;;;;;;17.23;56.11;101364.09;5072688;28;20506;-75
2023/08/09 02:14:56;;;;;;;5.50;1.75;;;;;;;17.17;56.35;101359.53;5072882;28;20386;-75
2023/08/09 02:17:21;;;;;;;4.50;1.70;;;;;;;17.23;56.06;101353.38;5071938;28;20371;-75
2023/08/09 02:19:47;;;;;;;4.30;1.63;;;;;;;17.13;56.52;101359.13;5072833;28;20561;-75
2023/08/09 02:22:17;;;;;;;4.85;1.70;;;;;;;17.11;56.39;101350.44;5072789;28;20739;-75
2023/08/09 02:24:43;;;;;;;6.63;1.85;;;;;;;17.14;56.24;101355.44;5072942;28;20470;-75
2023/08/09 02:27:09;;;;;;;7.75;2.03;;;;;;;17.23;56.17;101349.88;5072779;28;20371;-75
2023/08/09 02:29:36;;;;;;;5.13;1.70;;;;;;;17.27;55.99;101351.13;5072648;28;20465;-75
2023/08/09 02:32:02;;;;;;;5.65;1.75;;;;;;;17.29;55.70;101359.81;5072368;28;20484;-75
2023/08/09 02:34:28;;;;;;;4.80;1.87;;;;;;;17.29;55.77;101351.78;5072561;28;20383;-75
2023/08/09 02:36:54;;;;;;;5.63;1.83;;;;;;;17.29;55.79;101346.44;5072537;28;20471;-75
2023/08/09 02:39:20;;;;;;;6.07;2.00;;;;;;;17.22;55.96;101340.22;5072339;28;20923;-74
2023/08/09 02:41:46;;;;;;;6.40;2.00;;;;;;;17.18;55.97;101353.19;5072074;28;20374;-75
2023/08/09 02:44:12;;;;;;;5.47;1.80;;;;;;;17.14;56.24;101360.78;5072414;28;20904;-74
2023/08/09 02:46:37;;;;;;;5.43;1.70;;;;;;;17.14;56.05;101359.94;5072319;28;20976;-74
2023/08/09 02:49:03;;;;;;;5.07;1.70;;;;;;;17.17;55.82;101356.88;5072291;28;20461;-75
2023/08/09 02:51:29;;;;;;;7.72;2.10;;;;;;;17.29;55.75;101365.19;5072234;28;20870;-75
2023/08/09 02:54:03;;;;;;;6.65;1.90;;;;;;;17.23;55.75;101364.09;5072084;28;20430;-75
2023/08/09 02:56:29;;;;;;;7.97;2.00;;;;;;;17.37;55.25;101365.81;5072107;28;20389;-74
2023/08/09 02:58:55;;;;;;;5.32;1.88;;;;;;;17.42;54.97;101364.41;5072054;28;20371;-74
2023/08/09 03:01:24;;;;;;;5.45;1.80;;;;;;;17.29;55.52;101368.69;5071948;28;20449;-74
2023/08/09 03:03:51;;;;;;;4.40;1.75;;;;;;;17.27;55.41;101370.75;5072111;28;20402;-75
2023/08/09 03:06:22;;;;;;;5.32;1.65;;;;;;;17.43;55.02;101374.09;5072074;28;20928;-74
2023/08/09 03:08:52;;;;;;;6.28;1.88;;;;;;;17.49;54.58;101374.13;5071667;28;20375;-74
2023/08/09 03:11:23;;;;;;;5.17;1.60;;;;;;;17.43;54.66;101372.28;5071948;28;20383;-75
2023/08/09 03:13:49;;;;;;;4.05;1.75;;;;;;;17.37;54.84;101373.03;5071958;28;20882;-74
2023/08/09 03:16:14;;;;;;;4.95;1.83;;;;;;;17.39;54.79;101385.25;5072105;28;20386;-74
2023/08/09 03:18:40;;;;;;;4.63;1.90;;;;;;;17.49;54.58;101381.34;5072620;28;20927;-75
2023/08/09 03:21:07;;;;;;;6.97;1.87;;;;;;;17.54;54.11;101386.94;5071683;28;20383;-74
2023/08/09 03:23:33;;;;;;;7.15;1.92;;;;;;;17.53;54.23;101387.97;5070370;28;20363;-75
2023/08/09 03:25:58;;;;;;;5.88;2.00;;;;;;;17.47;54.46;101386.09;5071640;28;20883;-75
2023/08/09 03:28:24;;;;;;;5.63;2.20;;;;;;;17.45;54.61;101404.19;5071482;28;20407;-75
2023/08/09 03:30:50;;;;;;;7.63;2.30;;;;;;;17.51;54.50;101398.88;5071284;28;20409;-75
2023/08/09 03:33:15;;;;;;;4.93;2.00;;;;;;;17.56;54.32;101398.31;5054061;28;20399;-75
2023/08/09 03:35:41;;;;;;;8.00;2.20;;;;;;;17.52;54.50;101397.03;5072164;28;20883;-75
2023/08/09 03:38:06;;;;;;;8.95;2.38;;;;;;;17.50;54.76;101413.34;5071132;28;20371;-75
2023/08/09 03:40:32;;;;;;;5.63;2.40;;;;;;;17.57;54.76;101410.66;5071392;28;20379;-75
2023/08/09 03:42:57;;;;;;;5.93;2.40;;;;;;;17.66;54.66;101406.78;5071256;28;20378;-74
2023/08/09 03:45:23;;;;;;;7.60;2.50;;;;;;;17.69;54.62;101414.44;5071087;28;20964;-75
2023/08/09 03:47:48;;;;;;;6.55;2.40;;;;;;;17.73;54.60;101417.53;5071107;28;20379;-75
2023/08/09 03:50:14;;;;;;;7.67;2.37;;;;;;;17.80;54.58;101418.41;5070408;28;20390;-75
2023/08/09 03:52:40;;;;;;;7.10;2.57;;;;;;;17.91;54.63;101409.78;5070471;28;20403;-75
2023/08/09 03:55:06;;;;;;;6.47;2.10;;;;;;;18.02;54.39;101412.94;5070648;28;20862;-75
2023/08/09 03:57:32;;;;;;;5.38;2.20;;;;;;;18.00;54.28;101407.75;5069622;28;20375;-75
2023/08/09 03:59:57;;;;;;;7.07;2.70;;;;;;;18.04;54.35;101411.72;5069827;28;20927;-76
2023/08/09 04:02:23;;;;;;;8.47;3.00;;;;;;;18.05;54.26;101410.66;5070109;28;20420;-75
2023/08/09 04:04:48;;;;;;;6.72;2.40;;;;;;;18.09;54.46;101416.44;5069252;28;20470;-75
2023/08/09 04:07:14;;;;;;;8.83;2.50;;;;;;;18.03;54.48;101409.22;5068744;28;20806;-75
2023/08/09 04:09:40;;;;;;;6.57;2.40;;;;;;;18.04;54.79;101425.13;5068252;28;20470;-74
2023/08/09 04:12:06;;;;;;;10.93;3.83;;;;;;;18.11;54.69;101425.13;5067956;28;20492;-74
2023/08/09 04:14:33;;;;;;;14.90;6.30;;;;;;;18.16;54.54;101428.03;5066027;28;20381;-75
2023/08/09 04:16:58;;;;;;;17.08;7.25;;;;;;;18.26;54.50;101427.66;5069053;28;20379;-74
2023/08/09 04:19:26;;;;;;;15.97;8.00;;;;;;;18.34;54.25;101425.59;5075582;28;20382;-74
2023/08/09 04:21:52;;;;;;;17.10;7.47;;;;;;;18.40;54.22;101433.84;5079113;28;20382;-75
2023/08/09 04:24:18;;;;;;;11.65;6.50;;;;;;;18.42;53.98;101418.38;5090717;28;20456;-75
2023/08/09 04:26:43;;;;;;;12.70;6.25;;;;;;;18.45;53.83;101421.47;5090579;28;20419;-76
2023/08/09 04:29:09;;;;;;;10.10;4.20;;;;;;;18.42;53.55;101423.72;5089838;28;20413;-75
2023/08/09 04:31:35;;;;;;;13.27;5.03;;;;;;;18.34;53.97;101436.31;5089679;28;20409;-75
2023/08/09 04:34:00;;;;;;;9.93;5.20;;;;;;;18.41;54.09;101433.66;5090059;28;20411;-75
2023/08/09 04:36:26;;;;;;;8.67;4.37;;;;;;;18.40;53.81;101436.53;5090023;28;20373;-75
2023/08/09 04:38:52;;;;;;;8.23;3.42;;;;;;;18.40;53.86;101442.75;5090085;28;20370;-74
2023/08/09 04:41:17;;;;;;;7.57;2.88;;;;;;;18.38;53.93;101439.41;5090159;28;20388;-75
2023/08/09 04:43:43;;;;;;;9.57;3.20;;;;;;;18.36;53.75;101444.16;5025506;28;20399;-74
2023/08/09 04:46:13;;;;;;;8.43;3.60;;;;;;;18.52;53.27;101441.09;5029197;28;20873;-75
2023/08/09 04:48:39;;;;;;;9.43;3.67;;;;;;;18.65;53.13;101445.66;5028382;28;20436;-75
2023/08/09 04:51:05;;;;;;;4.10;1.90;;;;;;;18.39;53.21;101446.47;5029328;28;20727;-75
2023/08/09 04:53:31;;;;;;;6.00;2.00;;;;;;;18.15;53.84;101443.31;5029838;28;20405;-76
2023/08/09 04:55:56;;;;;;;5.77;2.50;;;;;;;18.32;53.80;101454.50;5029956;28;20382;-75
2023/08/09 04:58:22;;;;;;;6.13;2.13;;;;;;;18.63;53.47;101460.31;5021754;28;20436;-75
2023/08/09 05:00:47;;;;;;;5.97;2.00;;;;;;;18.64;53.19;101456.63;5019828;28;20427;-75
2023/08/09 05:03:13;;;;;;;4.40;1.90;;;;;;;18.50;53.72;101464.63;5015268;28;20534;-75
2023/08/09 05:05:38;;;;;;;5.37;1.73;;;;;;;18.56;53.69;101463.00;5016269;28;20451;-75
2023/08/09 05:08:04;;;;;;;6.97;1.98;;;;;;;18.59;53.58;101453.72;5015729;28;20524;-75
2023/08/09 05:10:30;;;;;;;5.07;1.53;;;;;;;18.43;54.03;101463.81;5020686;28;20425;-75
2023/08/09 05:12:55;;;;;;;6.47;1.88;;;;;;;18.21;54.71;101463.13;5026230;28;20414;-75
2023/08/09 05:15:21;;;;;;;3.75;1.30;;;;;;;18.34;54.72;101465.84;5025919;28;20394;-75
2023/08/09 05:17:46;;;;;;;6.63;1.57;;;;;;;18.31;54.87;101466.28;5026409;28;20416;-76
2023/08/09 05:20:12;;;;;;;5.50;1.90;;;;;;;18.51;54.55;101462.78;5027224;28;20391;-76
2023/08/09 05:22:38;;;;;;;4.40;1.70;;;;;;;18.75;54.05;101455.19;5030140;28;20855;-75
2023/08/09 05:25:04;;;;;;;3.88;1.48;;;;;;;18.99;53.72;101456.44;5030982;28;20383;-76
2023/08/09 05:27:29;;;;;;;6.20;1.70;;;;;;;18.78;54.15;101470.88;5030505;28;20382;-76
2023/08/09 05:29:55;;;;;;;5.40;1.70;;;;;;;18.77;54.48;101477.28;5030556;28;20378;-75
2023/08/09 05:32:21;;;;;;;3.85;1.55;;;;;;;19.07;53.95;101472.38;5062724;28;20406;-77
2023/08/09 05:34:47;;;;;;;5.45;1.58;;;;;;;18.92;53.72;101469.88;5030749;28;20848;-76
2023/08/09 05:37:12;;;;;;;4.68;1.80;;;;;;;19.06;54.30;101463.44;5030068;28;20374;-76
2023/08/09 05:39:38;;;;;;;4.00;1.60;;;;;;;19.35;53.72;101471.28;5031394;28;20398;-76
2023/08/09 05:42:04;;;;;;;4.80;1.80;;;;;;;19.45;53.37;101469.81;5031878;28;20428;-76
2023/08/09 05:44:30;;;;;;;4.45;1.77;;;;;;;19.51;53.46;101475.38;5030512;28;20906;-74
2023/08/09 05:46:56;;;;;;;5.35;1.65;;;;;;;19.60;53.29;101474.13;5030779;28;20379;-75
2023/08/09 05:49:21;;;;;;;6.43;1.85;;;;;;;19.60;53.21;101482.19;5030299;28;20393;-75
2023/08/09 05:51:47;;;;;;;4.53;1.70;;;;;;;19.72;53.26;101493.13;5031453;28;20410;-74
2023/08/09 05:54:12;;;;;;;5.50;1.70;;;;;;;19.98;52.49;101500.31;5034227;28;20390;-74
2023/08/09 05:56:38;;;;;;;5.07;1.80;;;;;;;20.00;52.40;101490.13;5034427;28;20374;-75
2023/08/09 05:59:04;;;;;;;4.70;1.80;;;;;;;20.12;52.46;101496.50;5033548;28;20378;-75
2023/08/09 06:01:30;;;;;;;5.63;1.80;;;;;;;20.46;51.81;101482.88;5033814;28;20445;-76
2023/08/09 06:03:56;;;;;;;5.15;2.03;;;;;;;20.73;51.08;101481.66;5033817;28;20375;-76
2023/08/09 06:06:22;;;;;;;3.65;1.60;;;;;;;21.06;50.52;101483.25;5033827;28;20370;-75
2023/08/09 06:08:48;;;;;;;4.32;1.63;;;;;;;21.22;49.83;101475.66;5033590;28;20405;-75
2023/08/09 06:11:14;;;;;;;3.50;1.60;;;;;;;21.03;49.53;101478.34;5034223;28;20395;-75
2023/08/09 06:13:39;;;;;;;4.30;1.58;;;;;;;21.12;49.09;101476.16;5033866;28;20398;-76
2023/08/09 06:16:05;;;;;;;5.97;1.87;;;;;;;21.34;48.82;101482.81;5032696;28;20932;-75
2023/08/09 06:18:30;;;;;;;4.10;1.60;;;;;;;21.20;48.76;101475.88;5023257;28;20413;-76
2023/08/09 06:20:55;;;;;;;6.30;1.83;;;;;;;21.32;48.71;101479.50;5014907;28;20384;-75
2023/08/09 06:23:21;;;;;;;5.80;1.97;;;;;;;21.55;48.28;101486.13;5033147;28;20377;-75
2023/08/09 06:25:49;;;;;;;4.13;1.58;;;;;;;21.60;48.07;101482.78;5033013;28;20529;-77
2023/08/09 06:28:17;;;;;;;5.20;1.80;;;;;;;21.80;47.59;101486.06;5033542;28;20449;-75
2023/08/09 06:30:42;;;;;;;4.05;1.55;;;;;;;21.70;47.25;101486.59;5033391;28;20470;-77
2023/08/09 06:33:08;;;;;;;4.32;1.67;;;;;;;21.55;47.54;101478.03;5031993;28;20421;-76
2023/08/09 06:35:34;;;;;;;3.37;1.43;;;;;;;21.51;47.48;101485.75;5033425;28;20409;-76
2023/08/09 06:37:59;;;;;;;3.92;1.60;;;;;;;21.69;47.37;101484.13;5033160;28;20440;-75
2023/08/09 06:40:25;;;;;;;5.33;1.80;;;;;;;21.72;47.60;101483.69;5032560;28;20378;-76
2023/08/09 06:42:50;;;;;;;3.03;1.60;;;;;;;21.91;46.95;101470.97;5033491;28;20398;-75
2023/08/09 06:45:16;;;;;;;4.93;1.77;;;;;;;22.15;46.57;101480.84;5035051;28;20375;-77
2023/08/09 06:47:42;;;;;;;4.72;1.70;;;;;;;22.29;46.47;101459.91;5033216;28;20374;-76
2023/08/09 06:50:08;;;;;;;2.57;1.60;;;;;;;22.48;45.68;101457.13;5032995;28;20374;-76
2023/08/09 06:52:36;;;;;;;5.97;1.57;;;;;;;22.78;45.06;101457.09;5033204;28;20417;-75
2023/08/09 06:55:03;;;;;;;4.15;1.52;;;;;;;23.09;44.67;101463.25;5032449;28;20374;-75
2023/08/09 06:57:28;;;;;;;3.42;1.70;;;;;;;23.29;44.02;101471.81;5033807;28;20397;-76
2023/08/09 06:59:54;;;;;;;5.70;2.10;;;;;;;23.29;43.94;101460.16;5032330;28;20465;-75
2023/08/09 07:02:20;;;;;;;5.32;1.80;;;;;;;23.24;44.50;101460.88;5027676;28;20390;-76
2023/08/09 07:04:46;;;;;;;6.13;1.90;;;;;;;23.34;43.82;101465.69;5016372;28;20491;-76
2023/08/09 07:07:12;;;;;;;5.82;1.90;;;;;;;23.35;43.56;101466.50;5012992;28;20453;-75
2023/08/09 07:09:37;;;;;;;8.33;3.00;;;;;;;23.31;44.22;101463.47;5011671;28;20384;-76
2023/08/09 07:12:03;;;;;;;5.13;1.95;;;;;;;23.43;44.11;101460.75;5012653;28;20923;-76
2023/08/09 07:14:29;;;;;;;6.03;2.30;;;;;;;23.53;43.47;101462.84;5012614;28;20482;-75
2023/08/09 07:16:54;;;;;;;4.35;1.80;;;;;;;23.58;43.26;101466.47;5012693;28;20373;-75
2023/08/09 07:19:20;;;;;;;3.17;1.43;;;;;;;23.68;43.55;101468.59;5012780;28;20381;-76
2023/08/09 07:21:45;;;;;;;6.03;1.93;;;;;;;23.78;43.72;101465.25;5012635;28;20384;-74
2023/08/09 07:24:11;;;;;;;3.92;1.77;;;;;;;24.08;44.05;101454.22;5012266;28;20422;-74
2023/08/09 07:26:36;;;;;;;6.67;2.20;;;;;;;24.32;43.60;101454.09;5012143;28;20442;-74
2023/08/09 07:29:03;;;;;;;4.07;1.80;;;;;;;24.30;43.67;101450.81;5012145;28;20391;-73
2023/08/09 07:31:28;;;;;;;4.25;1.98;;;;;;;24.06;43.55;101450.94;5011475;28;20404;-74
2023/08/09 07:33:54;;;;;;;4.93;1.93;;;;;;;24.21;43.87;101453.09;5011923;28;21129;-74
2023/08/09 07:36:19;;;;;;;6.30;2.03;;;;;;;24.49;43.21;101448.69;5011913;28;20392;-74
2023/08/09 07:38:45;;;;;;;6.43;2.30;;;;;;;24.68;43.13;101447.44;5011780;28;21234;-74
2023/08/09 07:41:10;;;;;;;6.03;1.90;;;;;;;24.77;42.64;101443.22;5011668;28;20379;-74
2023/08/09 07:43:36;;;;;;;4.97;1.98;;;;;;;24.81;41.95;101438.13;5011615;28;20899;-74
2023/08/09 07:46:05;;;;;;;4.47;2.07;;;;;;;24.53;41.79;101431.75;5011374;28;20391;-75
2023/08/09 07:48:31;;;;;;;3.90;1.90;;;;;;;24.26;42.81;101442.38;5010780;28;20908;-74
2023/08/09 07:50:57;;;;;;;5.18;1.92;;;;;;;24.25;42.57;101432.56;5011693;28;20408;-75
2023/08/09 07:53:22;;;;;;;3.30;1.63;;;;;;;24.17;42.87;101444.63;5011654;28;20431;-74
2023/08/09 07:55:48;;;;;;;4.93;1.80;;;;;;;24.45;42.15;101442.94;5012000;28;20392;-76
2023/08/09 07:58:14;;;;;;;6.00;1.80;;;;;;;24.42;41.59;101443.47;5012604;28;20390;-76
2023/08/09 08:00:39;;;;;;;4.00;1.58;;;;;;;24.38;41.91;101445.84;5013354;28;20391;-75
2023/08/09 08:03:05;;;;;;;3.40;1.60;;;;;;;24.32;41.71;101452.22;5012416;28;20372;-76
2023/08/09 08:05:30;;;;;;;7.07;2.10;;;;;;;24.08;41.86;101445.28;5012572;28;20832;-75
2023/08/09 08:07:56;;;;;;;3.67;1.60;;;;;;;24.46;41.85;101441.06;5012156;28;20437;-76
2023/08/09 08:10:22;;;;;;;3.77;1.60;;;;;;;24.30;41.28;101448.94;5012166;28;20395;-75
2023/08/09 08:12:48;;;;;;;4.97;1.70;;;;;;;24.19;41.24;101447.91;5012820;28;20493;-74
2023/08/09 08:15:15;;;;;;;3.20;1.40;;;;;;;24.42;41.28;101440.75;5010833;28;20415;-74
2023/08/09 08:17:41;;;;;;;3.73;1.77;;;;;;;24.69;41.43;101437.44;5011479;28;20383;-74
2023/08/09 08:20:10;;;;;;;5.90;1.80;;;;;;;24.91;41.11;101429.34;5011236;28;20373;-74
2023/08/09 08:22:37;;;;;;;3.88;1.80;;;;;;;24.58;40.88;101431.81;5014883;28;20402;-75
2023/08/09 08:25:04;;;;;;;5.63;1.92;;;;;;;24.63;41.25;101444.63;5017092;28;20417;-75
2023/08/09 08:27:34;;;;;;;4.65;2.10;;;;;;;24.69;40.92;101446.38;5015417;28;20408;-75
2023/08/09 08:30:00;;;;;;;5.07;2.20;;;;;;;25.05;40.61;101437.94;5014460;28;20468;-74
2023/08/09 08:32:25;;;;;;;4.03;1.80;;;;;;;25.29;40.18;101433.16;5013406;28;20438;-75
2023/08/09 08:34:56;;;;;;;4.25;2.00;;;;;;;25.43;40.11;101430.91;5027596;28;20421;-74
2023/08/09 08:37:22;;;;;;;4.87;2.00;;;;;;;25.63;39.93;101431.16;5016625;28;20527;-74
2023/08/09 08:39:48;;;;;;;5.32;1.58;;;;;;;25.64;39.92;101429.25;5011513;28;20400;-74
2023/08/09 08:42:13;;;;;;;3.67;1.98;;;;;;;25.47;39.64;101421.19;5008725;28;20379;-75
2023/08/09 08:44:39;;;;;;;5.87;1.97;;;;;;;25.58;39.33;101427.56;5008846;28;20412;-75
2023/08/09 08:47:06;;;;;;;3.65;1.70;;;;;;;25.78;38.87;101419.63;5008779;28;20403;-75
2023/08/09 08:49:34;;;;;;;4.43;1.88;;;;;;;25.83;38.45;101416.97;5008610;28;20390;-74
2023/08/09 08:52:06;;;;;;;3.00;1.45;;;;;;;25.96;38.41;101412.25;5012227;28;20387;-75
2023/08/09 08:54:32;;;;;;;6.10;1.90;;;;;;;26.01;38.21;101415.03;5012217;28;20447;-75
2023/08/09 08:56:57;;;;;;;2.87;1.30;;;;;;;26.21;38.36;101401.63;5011602;28;20841;-74
2023/08/09 08:59:23;;;;;;;4.37;1.63;;;;;;;26.44;38.69;101400.47;5011642;28;20453;-74
2023/08/09 09:01:49;;;;;;;3.50;1.50;;;;;;;26.44;38.83;101395.03;5011219;28;20375;-74
2023/08/09 09:04:14;;;;;;;3.53;1.70;;;;;;;26.51;38.95;101398.34;5011369;28;20833;-74
2023/08/09 09:06:41;;;;;;;4.37;1.57;;;;;;;26.49;38.96;101389.63;5010953;28;20376;-75
2023/08/09 09:09:13;;;;;;;4.10;1.70;;;;;;;26.54;38.97;101391.53;5010887;28;20384;-75
2023/08/09 09:11:39;;;;;;;2.63;1.40;;;;;;;26.51;39.17;101389.38;5010865;28;20736;-75
2023/08/09 09:14:12;;;;;;;4.97;1.88;;;;;;;26.49;38.81;101381.47;5010792;28;20408;-76
2023/08/09 09:16:38;;;;;;;5.10;2.10;;;;;;;26.47;39.02;101380.06;5010762;28;20388;-75
2023/08/09 09:19:04;;;;;;;4.47;1.80;;;;;;;26.44;39.37;101377.91;5010917;28;20379;-74
2023/08/09 09:21:34;;;;;;;7.87;2.50;;;;;;;26.41;39.41;101384.66;5010567;28;20758;-74
2023/08/09 09:24:07;;;;;;;5.50;2.00;;;;;;;26.55;38.87;101381.50;5010552;28;20671;-75
2023/08/09 09:26:35;;;;;;;3.17;1.50;;;;;;;26.48;38.68;101379.81;5013003;28;20471;-76
2023/08/09 09:29:00;;;;;;;3.40;1.60;;;;;;;26.60;38.51;101379.63;5014922;28;20405;-74
2023/08/09 09:31:39;;;;;;;2.88;1.63;;;;;;;26.56;38.23;101383.97;5014274;28;20784;-76
2023/08/09 09:34:07;;;;;;;4.15;1.50;;;;;;;26.66;38.08;101384.06;5014937;28;20447;-75
2023/08/09 09:36:37;;;;;;;2.15;1.20;;;;;;;26.58;37.15;101387.25;5014373;28;20857;-75
2023/08/09 09:39:09;;;;;;;2.90;1.33;;;;;;;26.60;37.31;101379.63;5014223;28;20872;-76
2023/08/09 09:41:35;;;;;;;7.43;1.50;;;;;;;26.56;37.03;101383.97;5014462;28;20710;-75
2023/08/09 09:44:02;;;;;;;3.83;1.17;;;;;;;26.78;37.02;101372.19;5014861;28;20387;-76
2023/08/09 09:46:28;;;;;;;1.50;0.97;;;;;;;26.89;35.74;101371.16;5014589;28;20786;-75
2023/08/09 09:49:03;;;;;;;3.30;1.30;;;;;;;27.01;35.97;101365.47;5014482;28;20924;-76
2023/08/09 09:51:29;;;;;;;3.73;1.30;;;;;;;27.02;35.57;101357.06;5014432;28;20476;-75
2023/08/09 09:53:55;;;;;;;3.40;1.48;;;;;;;27.13;35.21;101362.56;5014152;28;20499;-76
2023/08/09 09:56:20;;;;;;;3.72;1.30;;;;;;;27.10;34.90;101355.75;5013909;28;20860;-74
2023/08/09 09:58:47;;;;;;;2.47;1.07;;;;;;;27.12;34.03;101363.63;5013871;28;20414;-74
2023/08/09 10:01:18;;;;;;;2.00;1.00;;;;;;;26.94;33.86;101363.03;5014300;28;20420;-75
2023/08/09 10:03:44;;;;;;;1.92;0.90;;;;;;;27.00;32.91;101347.53;5014275;28;20399;-75
2023/08/09 10:06:33;;;;;;;2.50;1.17;;;;;;;27.09;32.86;101349.47;5012854;28;20483;-75
2023/08/09 10:09:00;;;;;;;2.33;1.20;;;;;;;27.28;32.30;101346.34;5013791;28;20437;-75
2023/08/09 10:11:28;;;;;;;1.95;1.02;;;;;;;27.37;32.26;101346.59;5013721;28;20376;-75
2023/08/09 10:13:56;;;;;;;2.25;1.13;;;;;;;27.38;32.51;101338.19;5013705;28;20900;-75
2023/08/09 10:16:25;;;;;;;2.13;1.07;;;;;;;27.42;32.84;101333.84;5014146;28;20391;-75
2023/08/09 10:18:57;;;;;;;2.05;1.10;;;;;;;27.44;32.45;101330.84;5013440;28;20415;-74
2023/08/09 10:21:24;;;;;;;2.45;1.27;;;;;;;27.38;32.78;101327.28;5013642;28;20376;-77
2023/08/09 10:24:13;;;;;;;2.67;1.10;;;;;;;27.53;33.37;101320.25;5013473;28;20395;-74
2023/08/09 10:26:40;;;;;;;3.30;1.55;;;;;;;27.63;33.51;101321.06;5013914;28;20380;-76
2023/08/09 10:29:09;;;;;;;2.75;1.30;;;;;;;27.76;33.84;101327.09;5014808;28;20380;-74
2023/08/09 10:32:03;;;;;;;3.15;1.55;;;;;;;27.87;33.68;101312.38;5014011;28;20404;-74
2023/08/09 10:34:36;;;;;;;4.88;1.50;;;;;;;27.77;33.33;101313.22;5013440;28;20387;-74
2023/08/09 10:37:04;;;;;;;2.97;1.40;;;;;;;27.67;33.60;101315.91;5012894;28;20428;-75
2023/08/09 10:39:31;;;;;;;1.80;1.20;;;;;;;27.68;33.50;101306.66;5013489;28;20922;-75
2023/08/09 10:42:02;;;;;;;2.10;1.20;;;;;;;27.63;32.98;101299.28;5013790;28;20376;-74
2023/08/09 10:44:34;;;;;;;1.70;1.10;;;;;;;27.62;33.42;101281.31;5014068;28;20411;-75
2023/08/09 10:47:18;;;;;;;2.07;1.20;;;;;;;27.84;33.56;101281.06;5013157;28;20380;-75
2023/08/09 10:49:59;;;;;;;4.20;1.40;;;;;;;27.83;33.67;101282.13;5013314;28;20710;-73
2023/08/09 10:52:41;;;;;;;2.22;1.20;;;;;;;27.87;33.17;101268.78;5012971;28;20411;-75
2023/08/09 10:55:18;;;;;;;2.35;1.20;;;;;;;27.89;33.68;101261.16;5013864;28;20387;-74
2023/08/09 10:57:47;;;;;;;2.03;1.17;;;;;;;27.91;33.38;101259.03;5013696;28;20434;-76
2023/08/09 11:00:14;;;;;;;2.78;1.20;;;;;;;27.90;33.51;101259.28;5013809;28;20380;-75
2023/08/09 11:02:50;;;;;;;2.78;1.20;;;;;;;27.84;33.26;101264.72;5013780;28;20395;-75
2023/08/09 11:05:19;;;;;;;2.33;1.20;;;;;;;27.94;32.71;101257.66;5013148;28;20519;-75
2023/08/09 11:07:50;;;;;;;1.98;1.13;;;;;;;27.91;32.83;101247.28;5012682;28;20423;-75
2023/08/09 11:10:16;;;;;;;2.72;1.27;;;;;;;27.81;32.95;101246.19;5013012;28;20388;-75
2023/08/09 11:12:45;;;;;;;2.80;1.20;;;;;;;27.93;33.11;101248.66;5013187;28;20404;-75
2023/08/09 11:15:13;;;;;;;3.20;1.20;;;;;;;27.90;33.54;101237.47;5013468;28;20729;-74
2023/08/09 11:17:51;;;;;;;1.35;0.93;;;;;;;28.13;33.15;101236.91;5013415;28;20399;-74
2023/08/09 11:20:19;;;;;;;1.92;1.10;;;;;;;28.26;33.11;101240.97;5012815;28;20416;-75
2023/08/09 11:22:58;;;;;;;1.95;1.20;;;;;;;28.33;32.73;101229.78;5013072;28;20373;-75
2023/08/09 11:25:25;;;;;;;2.85;1.23;;;;;;;28.44;32.85;101225.94;5013717;28;20381;-76